Time;durP1;ratioP1;P1;durP2;ratioP2;P2;SDS_P1;SDS_P2;PMS_P1;PMS_P2;Temp;Humidity;BMP_temperature;BMP_pressure;BME280_temperature;BME280_humidity;BME280_pressure;Samples;Min_cycle;Max_cycle;Signal;HPM_P1;HPM_P2
2021/12/13 00:00:24;;;;;;;6.28;2.90;;;7.80;99.90;;;;;;5131404;28;20488;-73
2021/12/13 00:03:12;;;;;;;16.40;2.70;;;7.80;99.90;;;;;;5131838;28;20023;-73
2021/12/13 00:05:47;;;;;;;3.28;1.98;;;7.80;99.90;;;;;;5131470;28;20027;-73
2021/12/13 00:08:20;;;;;;;6.40;2.47;;;7.80;99.90;;;;;;5132135;28;20114;-73
2021/12/13 00:10:52;;;;;;;8.38;2.45;;;7.90;99.90;;;;;;5131347;28;20506;-73
2021/12/13 00:13:40;;;;;;;5.65;2.55;;;7.90;99.90;;;;;;5131590;28;20031;-73
2021/12/13 00:16:08;;;;;;;6.60;2.47;;;7.90;99.90;;;;;;5131197;28;20122;-73
2021/12/13 00:18:39;;;;;;;7.90;2.63;;;7.90;99.90;;;;;;5131348;28;20050;-73
2021/12/13 00:21:28;;;;;;;7.93;2.33;;;7.80;99.90;;;;;;5131921;28;20424;-73
2021/12/13 00:24:03;;;;;;;7.32;2.25;;;7.80;99.90;;;;;;5112967;28;20042;-73
2021/12/13 00:26:40;;;;;;;9.65;2.58;;;7.80;99.90;;;;;;5131432;28;20066;-73
2021/12/13 00:29:23;;;;;;;6.10;2.40;;;7.80;99.90;;;;;;5130966;28;20062;-73
2021/12/13 00:32:00;;;;;;;9.52;2.25;;;7.70;99.90;;;;;;5095834;28;20026;-73
2021/12/13 00:34:56;;;;;;;5.97;2.58;;;7.70;99.90;;;;;;5131203;28;20483;-73
2021/12/13 00:37:31;;;;;;;5.68;2.40;;;7.70;99.90;;;;;;5128695;28;20039;-73
2021/12/13 00:40:18;;;;;;;4.03;2.47;;;7.70;99.90;;;;;;5130629;28;20122;-73
2021/12/13 00:42:57;;;;;;;9.38;2.50;;;7.60;99.90;;;;;;5130961;28;20386;-73
2021/12/13 00:45:29;;;;;;;3.90;1.92;;;7.60;99.90;;;;;;5130754;28;20035;-73
2021/12/13 00:48:01;;;;;;;7.78;2.58;;;7.50;99.90;;;;;;5130857;28;20041;-73
2021/12/13 00:50:51;;;;;;;6.43;2.47;;;7.50;99.90;;;;;;5130225;28;20068;-73
2021/12/13 00:53:21;;;;;;;9.02;2.80;;;7.50;99.90;;;;;;5116816;28;20472;-73
2021/12/13 00:55:49;;;;;;;5.72;1.90;;;7.50;99.90;;;;;;5116775;28;20106;-73
2021/12/13 00:58:20;;;;;;;7.68;2.28;;;7.50;99.90;;;;;;5099325;28;20054;-73
2021/12/13 01:00:56;;;;;;;4.43;2.08;;;7.50;99.90;;;;;;5116616;28;20118;-73
2021/12/13 01:03:32;;;;;;;6.40;2.15;;;7.50;99.90;;;;;;5098413;28;20080;-73
2021/12/13 01:06:29;;;;;;;4.75;2.10;;;7.60;99.90;;;;;;5116450;28;20032;-73
2021/12/13 01:09:32;;;;;;;5.55;2.03;;;7.60;99.90;;;;;;5116432;28;20066;-73
2021/12/13 01:12:07;;;;;;;5.88;2.28;;;7.60;99.90;;;;;;5116739;28;20464;-73
2021/12/13 01:14:43;;;;;;;4.70;2.60;;;7.60;99.90;;;;;;5116502;28;20156;-73
2021/12/13 01:17:49;;;;;;;4.68;2.00;;;7.60;99.90;;;;;;5098220;28;20032;-73
2021/12/13 01:20:31;;;;;;;7.40;2.72;;;7.50;99.90;;;;;;5116197;28;20035;-73
2021/12/13 01:23:07;;;;;;;10.27;2.63;;;7.50;99.90;;;;;;5116558;28;20027;-73
2021/12/13 01:25:43;;;;;;;8.93;2.72;;;7.60;99.90;;;;;;5116217;28;20027;-73
2021/12/13 01:28:18;;;;;;;7.65;2.90;;;7.60;99.90;;;;;;5114890;28;20024;-73
2021/12/13 01:31:00;;;;;;;8.75;2.53;;;7.60;99.90;;;;;;5097888;28;20391;-73
2021/12/13 01:33:29;;;;;;;6.45;2.47;;;7.60;99.90;;;;;;5115982;28;20035;-73
2021/12/13 01:36:00;;;;;;;4.25;2.25;;;7.50;99.90;;;;;;5116100;28;20024;-73
2021/12/13 01:38:35;;;;;;;8.75;2.80;;;7.60;99.90;;;;;;5097947;28;20388;-73
2021/12/13 01:41:08;;;;;;;8.45;2.58;;;7.60;99.90;;;;;;5115714;28;20062;-73
2021/12/13 01:43:42;;;;;;;4.40;1.77;;;7.50;99.90;;;;;;5115894;28;20480;-73
2021/12/13 01:46:10;;;;;;;6.07;2.40;;;7.50;99.90;;;;;;5115766;28;20038;-73
2021/12/13 01:48:45;;;;;;;4.25;2.20;;;7.50;99.90;;;;;;5116110;28;20129;-73
2021/12/13 01:51:19;;;;;;;8.60;2.28;;;7.50;99.90;;;;;;5097501;28;20023;-73
2021/12/13 01:53:56;;;;;;;7.90;2.30;;;7.40;99.90;;;;;;5115675;28;20046;-73
2021/12/13 01:56:47;;;;;;;5.50;2.55;;;7.40;99.90;;;;;;5097448;28;20147;-73
2021/12/13 02:02:26;;;;;;;7.82;2.53;;;7.50;99.90;;;;;;5115340;28;20044;-72
2021/12/13 02:05:08;;;;;;;7.55;1.88;;;7.50;99.90;;;;;;5096831;28;20380;-73
2021/12/13 02:08:07;;;;;;;5.45;2.88;;;7.40;99.90;;;;;;5115381;28;20035;-73
2021/12/13 02:11:05;;;;;;;7.63;2.55;;;7.40;99.90;;;;;;5115245;28;20035;-73
2021/12/13 02:13:53;;;;;;;11.50;3.03;;;7.50;99.90;;;;;;5013131;28;20037;-73
2021/12/13 02:19:08;;;;;;;8.77;2.38;;;7.50;99.90;;;;;;5012819;28;20029;-73
2021/12/13 02:21:36;;;;;;;8.82;2.92;;;7.50;99.90;;;;;;5012776;28;20495;-73
2021/12/13 02:24:10;;;;;;;7.82;2.80;;;7.50;99.90;;;;;;4996549;28;20501;-73
2021/12/13 02:26:42;;;;;;;10.50;2.63;;;7.50;99.90;;;;;;5013034;28;20386;-73
2021/12/13 02:29:19;;;;;;;7.18;2.42;;;7.50;99.90;;;;;;5012593;28;20093;-73
2021/12/13 02:31:46;;;;;;;9.10;2.92;;;7.50;99.90;;;;;;5012431;28;20025;-73
2021/12/13 02:34:16;;;;;;;5.05;2.47;;;7.60;99.90;;;;;;5012584;28;20026;-73
2021/12/13 02:36:50;;;;;;;5.70;2.13;;;7.60;99.90;;;;;;5013285;28;20126;-73
2021/12/13 02:39:22;;;;;;;4.47;2.30;;;7.60;99.90;;;;;;5012230;28;20052;-73
2021/12/13 02:41:51;;;;;;;5.78;2.20;;;7.70;99.90;;;;;;5012371;28;20085;-73
2021/12/13 02:44:25;;;;;;;6.63;2.22;;;7.70;99.90;;;;;;4996147;28;20030;-73
2021/12/13 02:46:57;;;;;;;3.83;2.17;;;7.70;99.90;;;;;;5012412;28;20033;-73
2021/12/13 02:49:24;;;;;;;13.63;2.67;;;7.70;99.90;;;;;;5037764;28;20202;-73
2021/12/13 02:51:57;;;;;;;3.75;1.83;;;7.70;99.90;;;;;;5094122;28;20089;-73
2021/12/13 02:54:27;;;;;;;10.18;2.35;;;7.70;99.90;;;;;;5094191;28;20035;-73
2021/12/13 02:57:11;;;;;;;4.63;2.17;;;7.80;99.90;;;;;;5094121;28;20081;-73
2021/12/13 02:59:43;;;;;;;12.48;2.78;;;7.70;99.90;;;;;;5093992;28;20042;-73
2021/12/13 03:02:17;;;;;;;7.25;2.78;;;7.80;99.90;;;;;;5094277;28;20035;-73
2021/12/13 03:04:45;;;;;;;5.60;2.15;;;7.70;99.90;;;;;;5094000;28;20044;-73
2021/12/13 03:07:20;;;;;;;10.60;2.63;;;7.80;99.90;;;;;;5093120;28;20020;-73
2021/12/13 03:09:52;;;;;;;9.20;1.92;;;7.80;99.90;;;;;;5092654;28;20028;-73
2021/12/13 03:12:23;;;;;;;9.85;2.28;;;7.70;99.90;;;;;;5093936;28;20042;-73
2021/12/13 03:15:01;;;;;;;4.22;1.63;;;7.60;99.90;;;;;;5093505;28;20028;-73
2021/12/13 03:17:30;;;;;;;4.47;1.80;;;7.60;99.90;;;;;;5094092;28;20111;-73
2021/12/13 03:20:31;;;;;;;4.82;1.50;;;7.70;99.90;;;;;;5093684;28;20373;-72
2021/12/13 03:23:07;;;;;;;4.15;2.22;;;7.70;99.90;;;;;;5093524;28;20462;-73
2021/12/13 03:26:01;;;;;;;3.90;2.28;;;7.70;99.90;;;;;;5093766;28;20035;-73
2021/12/13 03:28:52;;;;;;;5.37;1.80;;;7.70;99.90;;;;;;5094032;28;20043;-73
2021/12/13 03:31:26;;;;;;;9.02;2.22;;;7.70;99.90;;;;;;5093710;28;20039;-73
2021/12/13 03:34:06;;;;;;;5.60;2.17;;;7.70;99.90;;;;;;5092483;28;20024;-73
2021/12/13 03:37:22;;;;;;;6.82;2.08;;;7.60;99.90;;;;;;5093532;28;20051;-73
2021/12/13 03:40:04;;;;;;;6.93;1.95;;;7.60;99.90;;;;;;5011464;28;20088;-73
2021/12/13 03:42:36;;;;;;;8.38;2.15;;;7.60;99.90;;;;;;5011585;28;20399;-73
2021/12/13 03:45:13;;;;;;;6.75;2.70;;;7.50;99.90;;;;;;5069490;28;20465;-73
2021/12/13 03:47:44;;;;;;;4.30;1.85;;;7.50;99.90;;;;;;5093525;28;20438;-73
2021/12/13 03:50:16;;;;;;;6.03;2.10;;;7.50;99.90;;;;;;5093538;28;20024;-73
2021/12/13 03:52:52;;;;;;;2.67;1.63;;;7.60;99.90;;;;;;5092378;28;20036;-73
2021/12/13 03:55:22;;;;;;;4.93;2.08;;;7.50;99.90;;;;;;5093369;28;20020;-73
2021/12/13 03:57:56;;;;;;;6.22;2.00;;;7.50;99.90;;;;;;5093320;28;20373;-73
2021/12/13 04:00:28;;;;;;;4.90;2.10;;;7.50;99.90;;;;;;5092145;28;20036;-73
2021/12/13 04:02:58;;;;;;;3.53;2.05;;;7.50;99.90;;;;;;5093282;28;20047;-73
2021/12/13 04:05:29;;;;;;;4.68;1.73;;;7.50;99.90;;;;;;5093224;28;20480;-73
2021/12/13 04:08:04;;;;;;;6.78;1.80;;;7.50;99.90;;;;;;5093899;28;20045;-73
2021/12/13 04:10:40;;;;;;;5.60;2.08;;;7.50;99.90;;;;;;5093288;28;20082;-73
2021/12/13 04:13:13;;;;;;;7.75;2.17;;;7.50;99.90;;;;;;5093260;28;20473;-73
2021/12/13 04:19:11;;;;;;;4.25;1.52;;;7.50;99.90;;;;;;5093191;28;20036;-73
2021/12/13 04:21:43;;;;;;;6.88;2.00;;;7.50;99.90;;;;;;5092889;28;20089;-73
2021/12/13 04:24:15;;;;;;;2.42;1.30;;;7.50;99.90;;;;;;5093091;28;20040;-73
2021/12/13 04:26:56;;;;;;;10.65;1.63;;;7.50;99.90;;;;;;5094832;28;20047;-73
2021/12/13 04:29:28;;;;;;;13.90;2.05;;;7.50;99.90;;;;;;5096960;28;20020;-73
2021/12/13 04:31:58;;;;;;;1.98;1.50;;;7.50;99.90;;;;;;5096830;28;20421;-73
2021/12/13 04:34:30;;;;;;;4.82;1.67;;;7.60;99.90;;;;;;5096808;28;20069;-73
2021/12/13 04:36:58;;;;;;;4.80;1.60;;;7.60;99.90;;;;;;5096715;28;20107;-73
2021/12/13 04:39:36;;;;;;;7.38;1.83;;;7.70;99.90;;;;;;5095220;28;20530;-73
2021/12/13 04:42:17;;;;;;;3.35;1.50;;;7.70;99.90;;;;;;5096622;28;20081;-73
2021/12/13 04:45:16;;;;;;;5.85;1.90;;;7.60;99.90;;;;;;5096621;28;20049;-72
2021/12/13 04:48:02;;;;;;;5.15;1.60;;;7.60;99.90;;;;;;5014371;28;20049;-72
2021/12/13 04:50:41;;;;;;;4.35;1.33;;;7.70;99.90;;;;;;4998067;28;20034;-72
2021/12/13 04:53:08;;;;;;;5.90;1.60;;;7.70;99.90;;;;;;5014545;28;20034;-73
2021/12/13 04:55:42;;;;;;;3.83;1.80;;;7.70;99.90;;;;;;5014407;28;20034;-72
2021/12/13 04:58:12;;;;;;;3.20;1.33;;;7.60;99.90;;;;;;5014506;28;20084;-72
2021/12/13 05:00:44;;;;;;;3.03;1.33;;;7.60;99.90;;;;;;5014228;28;20453;-72
2021/12/13 05:03:15;;;;;;;5.28;1.75;;;7.60;99.90;;;;;;5014329;28;20120;-72
2021/12/13 05:05:45;;;;;;;2.42;1.67;;;7.70;99.90;;;;;;5014521;28;20125;-72
2021/12/13 05:08:16;;;;;;;7.53;1.95;;;7.70;99.90;;;;;;5014237;28;20030;-72
2021/12/13 05:10:48;;;;;;;4.75;1.70;;;7.70;99.90;;;;;;5014129;28;20042;-72
2021/12/13 05:13:16;;;;;;;3.35;1.55;;;7.60;99.90;;;;;;5014157;28;20026;-72
2021/12/13 05:16:09;;;;;;;3.53;1.83;;;7.70;99.90;;;;;;5013976;28;20037;-72
2021/12/13 05:18:47;;;;;;;2.75;1.70;;;7.60;99.90;;;;;;5014244;28;20507;-72
2021/12/13 05:21:24;;;;;;;5.63;2.05;;;7.60;99.90;;;;;;5013990;28;20049;-72
2021/12/13 05:24:05;;;;;;;6.00;1.58;;;7.60;99.90;;;;;;5050104;28;20036;-71
2021/12/13 05:26:36;;;;;;;2.88;1.83;;;7.60;99.90;;;;;;5095875;28;20103;-72
2021/12/13 05:29:21;;;;;;;6.55;2.35;;;7.60;99.90;;;;;;5095821;28;20019;-72
2021/12/13 05:32:04;;;;;;;3.45;1.42;;;7.60;99.90;;;;;;5095883;28;20028;-72
2021/12/13 05:34:56;;;;;;;4.47;1.67;;;7.60;99.90;;;;;;5095698;28;20039;-71
2021/12/13 05:37:24;;;;;;;5.45;1.80;;;7.60;99.90;;;;;;5095556;28;20028;-72
2021/12/13 05:40:01;;;;;;;2.10;1.42;;;7.70;99.90;;;;;;5102558;28;20450;-72
2021/12/13 05:42:38;;;;;;;3.22;2.05;;;7.60;99.90;;;;;;5115692;28;20119;-72
2021/12/13 05:45:09;;;;;;;3.45;1.60;;;7.60;99.90;;;;;;5115865;28;20506;-72
2021/12/13 05:47:37;;;;;;;4.65;2.38;;;7.60;99.90;;;;;;5115771;28;20055;-72
2021/12/13 05:50:07;;;;;;;10.30;2.53;;;7.60;99.90;;;;;;5115931;28;20032;-72
2021/12/13 05:52:40;;;;;;;4.97;2.10;;;7.70;99.90;;;;;;5097505;28;20024;-72
2021/12/13 05:55:14;;;;;;;3.53;2.08;;;7.60;99.90;;;;;;5116329;28;20540;-72
2021/12/13 05:57:50;;;;;;;10.77;2.10;;;7.60;99.90;;;;;;5115638;28;20031;-72
2021/12/13 06:00:31;;;;;;;5.15;1.98;;;7.70;99.90;;;;;;5115306;28;20039;-73
2021/12/13 06:03:04;;;;;;;12.40;1.90;;;7.70;99.90;;;;;;5115480;28;20031;-72
2021/12/13 06:05:36;;;;;;;3.55;1.60;;;7.70;99.90;;;;;;5115781;28;20032;-72
2021/12/13 06:08:08;;;;;;;6.93;2.17;;;7.70;99.90;;;;;;5115417;28;20498;-72
2021/12/13 06:10:48;;;;;;;3.08;1.58;;;7.70;99.90;;;;;;5115137;28;20031;-72
2021/12/13 06:13:46;;;;;;;4.15;2.33;;;7.60;99.90;;;;;;5115736;28;20035;-67
2021/12/13 06:16:41;;;;;;;6.65;2.20;;;7.60;99.90;;;;;;5115237;28;20384;-67
2021/12/13 06:19:19;;;;;;;;;;;7.60;99.90;;;;;;5100870;28;20032;-68
2021/12/13 06:22:04;;;;;;;11.77;2.40;;;7.60;99.90;;;;;;5097210;28;20368;-67
2021/12/13 06:24:38;;;;;;;5.65;2.00;;;7.60;99.90;;;;;;5096928;28;20476;-68
2021/12/13 06:27:19;;;;;;;9.95;2.20;;;7.70;99.90;;;;;;5115389;28;20038;-68
2021/12/13 06:30:05;;;;;;;3.30;1.98;;;7.70;99.90;;;;;;5115245;28;20110;-67
2021/12/13 06:32:40;;;;;;;7.03;2.75;;;7.70;99.90;;;;;;5115290;28;20023;-67
2021/12/13 06:35:24;;;;;;;;;;;7.70;99.90;;;;;;5115258;28;20541;-67
2021/12/13 06:37:51;;;;;;;7.82;2.22;;;7.70;99.90;;;;;;5114925;28;20376;-67
2021/12/13 06:40:27;;;;;;;7.93;3.63;;;7.60;99.90;;;;;;5114375;28;20388;-67
2021/12/13 06:43:02;;;;;;;8.73;3.08;;;7.60;99.90;;;;;;5114985;28;20114;-67
2021/12/13 06:45:36;;;;;;;7.18;2.38;;;7.70;99.90;;;;;;5114589;28;20034;-67
2021/12/13 06:48:06;;;;;;;7.05;3.22;;;7.70;99.90;;;;;;5114878;28;20055;-67
2021/12/13 06:50:38;;;;;;;6.90;2.55;;;7.70;99.90;;;;;;5114297;28;20020;-67
2021/12/13 06:53:16;;;;;;;8.30;2.33;;;7.70;99.90;;;;;;5114419;28;20118;-67
2021/12/13 06:55:45;;;;;;;4.88;2.00;;;7.70;99.90;;;;;;5114494;28;20035;-67
2021/12/13 06:58:28;;;;;;;5.55;2.10;;;7.70;99.90;;;;;;5114389;28;20054;-67
2021/12/13 07:01:03;;;;;;;5.38;1.90;;;7.70;99.90;;;;;;5114239;28;20043;-67
2021/12/13 07:03:34;;;;;;;6.57;1.92;;;7.80;99.90;;;;;;5114321;28;20460;-67
2021/12/13 07:06:05;;;;;;;4.68;1.33;;;7.90;99.90;;;;;;5095980;28;20028;-67
2021/12/13 07:08:42;;;;;;;2.97;1.40;;;8.00;99.90;;;;;;5114603;28;20468;-67
2021/12/13 07:11:13;;;;;;;4.88;1.63;;;8.10;99.90;;;;;;5114874;28;20035;-68
2021/12/13 07:13:58;;;;;;;2.33;1.42;;;8.20;99.90;;;;;;5114153;28;20031;-67
2021/12/13 07:16:32;;;;;;;1.23;1.08;;;8.30;99.90;;;;;;5114221;28;20030;-68
2021/12/13 07:19:11;;;;;;;5.10;1.73;;;8.40;99.90;;;;;;5114123;28;20107;-68
2021/12/13 07:21:51;;;;;;;2.40;1.67;;;8.50;99.90;;;;;;5114382;28;20039;-67
2021/12/13 07:24:42;;;;;;;2.97;1.42;;;8.50;99.90;;;;;;5096257;28;20480;-67
2021/12/13 07:27:08;;;;;;;3.00;1.20;;;8.50;99.90;;;;;;5113981;28;20039;-67
2021/12/13 07:29:50;;;;;;;5.60;1.35;;;8.50;99.90;;;;;;5114241;28;20384;-68
2021/12/13 07:32:31;;;;;;;5.45;1.50;;;8.50;99.90;;;;;;5113868;28;20387;-68
2021/12/13 07:35:06;;;;;;;3.08;1.67;;;8.50;99.90;;;;;;5113979;28;20041;-68
2021/12/13 07:37:59;;;;;;;6.65;2.28;;;8.50;99.90;;;;;;5114251;28;20051;-67
2021/12/13 07:40:42;;;;;;;14.13;3.80;;;8.60;99.90;;;;;;5113586;28;20609;-68
2021/12/13 07:43:12;;;;;;;6.40;2.72;;;8.60;99.90;;;;;;5113835;28;20015;-68
2021/12/13 07:46:09;;;;;;;7.85;2.08;;;8.60;99.90;;;;;;5113661;28;20034;-68
2021/12/13 07:48:58;;;;;;;7.22;2.95;;;8.60;99.90;;;;;;5114057;28;20530;-68
2021/12/13 07:51:27;;;;;;;8.30;2.30;;;8.70;99.90;;;;;;5113720;28;20027;-68
2021/12/13 07:53:57;;;;;;;20.65;1.95;;;8.80;99.90;;;;;;5113804;28;20443;-68
2021/12/13 07:56:26;;;;;;;5.88;1.48;;;8.90;99.90;;;;;;5114066;28;20076;-68
2021/12/13 07:59:15;;;;;;;4.57;2.03;;;9.00;99.90;;;;;;5113729;28;20023;-68
2021/12/13 08:02:10;;;;;;;2.70;1.20;;;9.20;99.90;;;;;;5114947;28;20075;-67
2021/12/13 08:04:50;;;;;;;2.47;0.98;;;9.20;99.90;;;;;;5118082;28;20384;-67
2021/12/13 08:07:21;;;;;;;4.82;1.38;;;9.10;99.90;;;;;;5099621;28;20031;-67
2021/12/13 08:09:59;;;;;;;9.02;1.73;;;9.10;99.90;;;;;;5117782;28;20023;-67
2021/12/13 08:12:30;;;;;;;4.65;1.73;;;9.20;99.90;;;;;;5117822;28;20031;-67
2021/12/13 08:15:17;;;;;;;3.92;1.77;;;9.20;99.90;;;;;;5117607;28;20024;-68
2021/12/13 08:17:49;;;;;;;3.63;1.60;;;9.30;99.90;;;;;;5118171;28;20027;-67
2021/12/13 08:20:45;;;;;;;3.55;1.88;;;9.20;99.90;;;;;;5117394;28;20031;-67
2021/12/13 08:23:26;;;;;;;2.70;1.27;;;9.30;99.90;;;;;;5117719;28;20372;-68
2021/12/13 08:25:57;;;;;;;2.30;1.33;;;9.40;99.90;;;;;;5117735;28;20024;-68
2021/12/13 08:28:38;;;;;;;2.08;1.40;;;9.60;99.90;;;;;;5117630;28;20380;-67
2021/12/13 08:31:08;;;;;;;1.77;0.90;;;9.70;99.90;;;;;;5117456;28;20031;-68
2021/12/13 08:33:42;;;;;;;3.58;1.08;;;9.70;99.90;;;;;;5117093;28;20084;-67
2021/12/13 08:36:11;;;;;;;2.10;1.58;;;9.80;99.90;;;;;;5117440;28;20526;-68
2021/12/13 08:38:47;;;;;;;2.60;1.30;;;9.80;99.90;;;;;;5117436;28;20515;-68
2021/12/13 08:41:55;;;;;;;4.20;1.30;;;9.80;99.90;;;;;;5116868;28;20048;-68
2021/12/13 08:44:39;;;;;;;5.97;1.90;;;9.80;99.90;;;;;;5014781;28;20482;-68
2021/12/13 08:47:11;;;;;;;2.65;0.98;;;9.80;99.90;;;;;;4998221;28;20042;-68
2021/12/13 08:49:59;;;;;;;10.75;1.30;;;9.80;99.90;;;;;;5014578;28;20544;-68
2021/12/13 08:52:39;;;;;;;2.30;1.20;;;9.70;99.90;;;;;;5000948;28;20124;-68
2021/12/13 08:55:11;;;;;;;2.83;1.67;;;9.70;99.90;;;;;;5014419;28;20040;-68
2021/12/13 08:57:56;;;;;;;9.70;1.98;;;9.80;99.90;;;;;;5014337;28;20062;-67
2021/12/13 09:00:35;;;;;;;3.65;1.60;;;9.80;99.90;;;;;;5014320;28;20061;-68
2021/12/13 09:03:25;;;;;;;11.02;2.13;;;9.80;99.90;;;;;;5014200;28;20124;-68
2021/12/13 09:06:16;;;;;;;3.22;1.88;;;9.80;99.90;;;;;;5014442;28;20081;-68
2021/12/13 09:09:00;;;;;;;4.75;1.20;;;9.80;99.90;;;;;;5014532;28;20034;-68
2021/12/13 09:11:43;;;;;;;2.65;1.85;;;9.80;99.90;;;;;;5014163;28;20049;-68
2021/12/13 09:14:30;;;;;;;3.13;1.60;;;9.70;99.90;;;;;;5014289;28;20037;-68
2021/12/13 09:17:07;;;;;;;1.65;1.25;;;9.80;99.90;;;;;;4998312;28;20068;-67
2021/12/13 09:19:51;;;;;;;2.10;1.05;;;9.80;99.90;;;;;;5098162;28;20024;-68
2021/12/13 09:22:36;;;;;;;2.85;1.00;;;9.80;99.90;;;;;;5116642;28;20073;-68
2021/12/13 09:25:15;;;;;;;1.27;1.02;;;9.80;99.90;;;;;;5116193;28;20480;-67
2021/12/13 09:27:44;;;;;;;2.05;1.30;;;9.80;99.90;;;;;;5116034;28;20410;-68
2021/12/13 09:30:19;;;;;;;2.70;1.20;;;9.80;99.90;;;;;;5116171;28;20020;-68
2021/12/13 09:32:52;;;;;;;7.88;1.52;;;9.80;99.90;;;;;;5116437;28;20031;-68
2021/12/13 09:35:29;;;;;;;9.35;1.98;;;9.70;99.90;;;;;;5116408;28;20072;-68
2021/12/13 09:38:04;;;;;;;5.25;1.58;;;9.70;99.90;;;;;;5116430;28;20023;-68
2021/12/13 09:40:42;;;;;;;3.00;1.30;;;9.70;99.90;;;;;;5115712;28;20052;-68
2021/12/13 09:43:08;;;;;;;2.72;0.85;;;9.80;99.90;;;;;;5097617;28;20028;-68
2021/12/13 09:45:47;;;;;;;8.68;1.40;;;9.80;99.90;;;;;;5115846;28;20035;-68
2021/12/13 09:48:28;;;;;;;1.92;1.05;;;9.80;99.90;;;;;;5115783;28;20027;-68
2021/12/13 09:51:04;;;;;;;4.72;1.38;;;9.80;99.90;;;;;;5115847;28;20446;-68
2021/12/13 09:53:35;;;;;;;3.60;1.20;;;9.90;99.90;;;;;;5115601;28;20081;-68
2021/12/13 09:56:12;;;;;;;2.42;1.00;;;9.90;99.90;;;;;;5115596;28;20495;-68
2021/12/13 09:58:47;;;;;;;5.35;1.50;;;10.00;99.90;;;;;;5115577;28;20057;-68
2021/12/13 10:01:22;;;;;;;6.05;1.70;;;10.10;99.90;;;;;;5115543;28;20042;-68
2021/12/13 10:03:56;;;;;;;5.28;1.70;;;10.30;99.90;;;;;;5115321;28;20058;-68
2021/12/13 10:06:36;;;;;;;6.97;1.73;;;10.40;99.90;;;;;;5115510;28;20430;-68
2021/12/13 10:09:17;;;;;;;4.22;1.75;;;10.40;99.90;;;;;;5097592;28;20373;-68
2021/12/13 10:11:57;;;;;;;6.60;1.70;;;10.50;99.90;;;;;;5115352;28;20436;-68
2021/12/13 10:14:34;;;;;;;1.90;1.10;;;10.50;99.90;;;;;;5115613;28;20019;-68
2021/12/13 10:17:03;;;;;;;3.45;1.13;;;10.40;99.90;;;;;;5115568;28;20102;-68
2021/12/13 10:19:35;;;;;;;4.35;1.75;;;10.50;99.90;;;;;;5114884;28;20115;-68
2021/12/13 10:22:06;;;;;;;4.05;1.83;;;10.40;99.90;;;;;;5115070;28;20028;-68
2021/12/13 10:25:01;;;;;;;2.97;2.08;;;10.40;99.90;;;;;;5095854;28;20514;-67
2021/12/13 10:27:28;;;;;;;8.15;1.90;;;10.40;99.90;;;;;;5113444;28;20067;-68
2021/12/13 10:30:01;;;;;;;5.75;1.65;;;10.30;99.90;;;;;;5097159;28;20461;-68
2021/12/13 10:32:33;;;;;;;3.58;1.42;;;10.40;99.90;;;;;;5114959;28;20015;-68
2021/12/13 10:35:06;;;;;;;5.35;2.15;;;10.30;99.90;;;;;;5115424;28;20032;-68
2021/12/13 10:37:36;;;;;;;3.53;1.58;;;10.10;99.90;;;;;;5096700;28;20491;-68
2021/12/13 10:40:12;;;;;;;8.93;2.05;;;10.00;99.90;;;;;;5114751;28;20051;-68
2021/12/13 10:42:52;;;;;;;3.90;1.80;;;9.90;99.90;;;;;;5115110;28;20409;-68
2021/12/13 10:45:26;;;;;;;7.20;2.53;;;9.90;99.90;;;;;;5114476;28;20035;-68
2021/12/13 10:47:56;;;;;;;6.05;2.20;;;10.00;99.90;;;;;;5096487;28;20062;-68
2021/12/13 10:50:33;;;;;;;9.98;2.10;;;10.00;99.90;;;;;;5115014;28;20125;-68
2021/12/13 10:53:00;;;;;;;9.77;1.85;;;10.00;99.90;;;;;;5114540;28;20396;-67
2021/12/13 10:55:39;;;;;;;4.03;1.77;;;10.00;99.90;;;;;;5114936;28;20027;-68
2021/12/13 10:58:07;;;;;;;6.72;3.08;;;10.10;99.90;;;;;;5114845;28;20024;-68
2021/12/13 11:00:48;;;;;;;4.55;2.17;;;10.10;99.90;;;;;;5114356;28;20042;-68
2021/12/13 11:03:19;;;;;;;4.40;2.03;;;10.10;99.90;;;;;;5114366;28;20118;-68
2021/12/13 11:05:47;;;;;;;8.95;2.67;;;10.10;99.90;;;;;;5114418;28;20429;-68
2021/12/13 11:08:18;;;;;;;3.80;2.30;;;10.20;99.90;;;;;;5114393;28;20058;-68
2021/12/13 11:10:52;;;;;;;3.10;2.03;;;10.20;99.90;;;;;;5096125;28;20039;-68
2021/12/13 11:13:19;;;;;;;;;;;10.40;99.90;;;;;;5114733;28;20047;-68
2021/12/13 11:15:50;;;;;;;4.05;1.90;;;10.50;99.90;;;;;;5114098;28;20413;-68
2021/12/13 11:18:27;;;;;;;13.48;2.58;;;10.70;99.90;;;;;;5097380;28;20080;-68
2021/12/13 11:20:59;;;;;;;3.50;2.08;;;10.70;99.90;;;;;;5114289;28;20089;-68
2021/12/13 11:23:26;;;;;;;4.43;1.55;;;10.60;99.90;;;;;;5114404;28;20023;-68
2021/12/13 11:25:57;;;;;;;2.78;1.58;;;10.50;99.90;;;;;;5114229;28;20063;-68
2021/12/13 11:28:29;;;;;;;3.47;1.50;;;10.40;99.90;;;;;;5114029;28;20027;-67
2021/12/13 11:30:57;;;;;;;3.58;1.58;;;10.40;99.90;;;;;;5114346;28;20445;-68
2021/12/13 11:33:39;;;;;;;4.03;2.00;;;10.60;99.90;;;;;;5113934;28;20047;-68
2021/12/13 11:36:09;;;;;;;5.07;2.05;;;10.70;99.90;;;;;;5113642;28;20059;-68
2021/12/13 11:39:10;;;;;;;2.45;1.33;;;10.90;99.90;;;;;;5113886;28;20477;-68
2021/12/13 11:42:21;;;;;;;2.75;0.90;;;11.00;99.90;;;;;;5072056;28;20478;-68
2021/12/13 11:45:02;;;;;;;2.67;1.00;;;11.00;99.90;;;;;;5069496;28;20120;-68
2021/12/13 11:47:46;;;;;;;1.92;0.80;;;10.90;99.90;;;;;;5073282;28;20017;-68
2021/12/13 11:50:47;;;;;;;4.97;1.25;;;10.90;99.90;;;;;;5073272;28;20027;-68
2021/12/13 11:53:32;;;;;;;2.42;1.05;;;10.90;99.90;;;;;;5072361;28;20028;-68
2021/12/13 11:56:23;;;;;;;3.55;1.20;;;10.90;99.90;;;;;;5073149;28;20028;-68
2021/12/13 11:59:26;;;;;;;9.27;1.30;;;11.00;99.90;;;;;;5073547;28;20040;-68
2021/12/13 12:02:10;;;;;;;3.90;1.23;;;11.00;99.90;;;;;;5073406;28;20037;-68
2021/12/13 12:05:18;;;;;;;5.03;1.45;;;11.00;99.90;;;;;;5071935;28;20024;-68
2021/12/13 12:08:23;;;;;;;2.58;1.35;;;11.20;99.90;;;;;;5072921;28;20032;-68
2021/12/13 12:11:09;;;;;;;3.25;1.20;;;11.20;99.90;;;;;;5031162;28;20427;-68
2021/12/13 12:14:05;;;;;;;3.50;1.60;;;11.20;99.90;;;;;;5071775;28;20028;-68
2021/12/13 12:16:39;;;;;;;2.72;1.58;;;11.10;99.90;;;;;;5073549;28;20393;-68
2021/12/13 12:19:10;;;;;;;4.10;1.70;;;11.20;99.90;;;;;;5073212;28;20024;-68
2021/12/13 12:21:45;;;;;;;5.63;0.98;;;11.20;99.90;;;;;;5071610;28;20295;-67
2021/12/13 12:24:13;;;;;;;2.97;1.45;;;11.20;99.90;;;;;;5071635;28;20028;-68
2021/12/13 12:26:41;;;;;;;4.40;1.30;;;11.20;99.90;;;;;;5072826;28;20031;-67
2021/12/13 12:29:17;;;;;;;3.00;1.17;;;11.20;99.90;;;;;;5072886;28;20020;-67
2021/12/13 12:31:48;;;;;;;2.00;1.00;;;11.30;99.90;;;;;;5072952;28;20024;-67
2021/12/13 12:34:16;;;;;;;1.63;0.88;;;11.30;99.90;;;;;;5072735;28;20029;-68
2021/12/13 12:37:06;;;;;;;7.53;0.80;;;11.30;99.90;;;;;;5072762;28;20021;-67
2021/12/13 12:40:04;;;;;;;3.78;1.20;;;11.30;99.90;;;;;;5080977;28;20028;-68
2021/12/13 12:42:45;;;;;;;2.75;0.93;;;11.30;99.90;;;;;;5113428;28;20042;-68
2021/12/13 12:45:14;;;;;;;0.70;0.70;;;11.30;99.90;;;;;;5113668;28;20023;-67
2021/12/13 12:47:49;;;;;;;8.07;1.80;;;11.20;99.90;;;;;;5114469;28;20020;-67
2021/12/13 12:50:28;;;;;;;3.25;1.30;;;11.30;99.90;;;;;;5099044;28;20484;-68
2021/12/13 12:52:59;;;;;;;4.43;1.30;;;11.30;99.90;;;;;;5117290;28;20061;-67
2021/12/13 12:55:35;;;;;;;2.45;1.00;;;11.40;99.90;;;;;;5098567;28;20024;-68
2021/12/13 12:58:12;;;;;;;5.78;1.52;;;11.40;99.90;;;;;;5116797;28;20064;-68
2021/12/13 13:00:40;;;;;;;3.35;1.00;;;11.40;99.90;;;;;;5117222;28;20107;-67
2021/12/13 13:03:13;;;;;;;1.85;1.00;;;11.20;99.90;;;;;;5098504;28;20106;-67
2021/12/13 13:05:40;;;;;;;3.92;1.25;;;11.10;99.90;;;;;;5098424;28;20075;-67
2021/12/13 13:08:08;;;;;;;5.28;1.25;;;11.10;99.90;;;;;;5116503;28;20024;-67
2021/12/13 13:13:11;;;;;;;3.03;1.55;;;11.20;99.90;;;;;;5116697;28;20472;-67
2021/12/13 13:15:49;;;;;;;4.15;1.45;;;11.10;99.90;;;;;;5116453;28;20027;-67
2021/12/13 13:18:24;;;;;;;2.53;1.02;;;11.10;99.90;;;;;;5116394;28;20076;-67
2021/12/13 13:20:57;;;;;;;1.95;1.30;;;11.10;99.90;;;;;;5116622;28;20490;-67
2021/12/13 13:23:34;;;;;;;1.60;1.00;;;11.10;99.90;;;;;;5116632;28;20361;-67
2021/12/13 13:26:04;;;;;;;4.63;1.00;;;11.10;99.90;;;;;;5116547;28;20376;-67
2021/12/13 13:28:34;;;;;;;8.57;1.25;;;11.10;99.90;;;;;;5116105;28;20084;-67
2021/12/13 13:31:14;;;;;;;2.90;1.02;;;11.10;99.90;;;;;;5098027;28;20024;-67
2021/12/13 13:34:04;;;;;;;2.67;1.10;;;11.20;99.90;;;;;;5116457;28;20403;-67
2021/12/13 13:36:36;;;;;;;1.90;1.35;;;11.20;99.90;;;;;;5115370;28;20036;-67
2021/12/13 13:39:24;;;;;;;1.45;0.80;;;11.30;99.90;;;;;;5116098;28;20027;-68
2021/12/13 13:42:20;;;;;;;3.30;1.33;;;11.20;99.90;;;;;;5097709;28;20036;-67
2021/12/13 13:44:50;;;;;;;9.40;0.90;;;11.30;99.90;;;;;;5114029;28;20500;-67
2021/12/13 13:47:39;;;;;;;2.20;1.33;;;11.30;99.90;;;;;;5116073;28;20385;-67
2021/12/13 13:50:28;;;;;;;1.95;0.98;;;11.30;99.90;;;;;;5097551;28;20475;-67
2021/12/13 13:53:19;;;;;;;1.13;0.90;;;11.20;99.90;;;;;;5115788;28;20035;-67
2021/12/13 13:56:04;;;;;;;1.65;0.88;;;11.20;99.90;;;;;;5115973;28;20075;-67
2021/12/13 13:58:36;;;;;;;4.15;1.15;;;11.20;99.90;;;;;;5115672;28;20031;-67
2021/12/13 14:01:13;;;;;;;3.45;0.80;;;11.20;99.90;;;;;;5115583;28;20118;-67